Terminal Aerodrome Forecast
Issued by NWS Bismarck, ND

Home | Current Version | Previous Version | Graphics & Text | Print | Product List | Glossary On
Versions: 1 2 3 4 5 6 7 8 9 10 11 12
000
FTUS43 KBIS 250500
TAFBIS
TAF
KBIS 250529Z 2506/2606 27006KT P6SM SCT100 BKN200
     FM251200 VRB03KT P6SM BKN100 BKN200
     FM252100 12006KT P6SM SCT100=

USA.gov is the U.S. government's official web portal to all federal, state and local government web resources and services.